Time;durP1;ratioP1;P1;durP2;ratioP2;P2;SDS_P1;SDS_P2;PMS_P1;PMS_P2;Temp;Humidity;BMP_temperature;BMP_pressure;BME280_temperature;BME280_humidity;BME280_pressure;Samples;Min_cycle;Max_cycle;Signal;HPM_P1;HPM_P2
2023/10/24 00:01:53;;;;;;;2.72;1.33;;;18.40;68.80;;;;;;5048674;28;20813;-54
2023/10/24 00:04:19;;;;;;;1.67;1.35;;;18.50;68.90;;;;;;5047690;28;20032;-54
2023/10/24 00:06:44;;;;;;;1.83;1.27;;;18.50;68.90;;;;;;5046531;28;20042;-53
2023/10/24 00:09:10;;;;;;;1.80;1.30;;;18.50;68.90;;;;;;5048061;28;20020;-57
2023/10/24 00:11:35;;;;;;;1.52;1.33;;;18.50;68.90;;;;;;5047839;28;20100;-51
2023/10/24 00:14:01;;;;;;;3.28;1.30;;;18.40;68.80;;;;;;5048818;28;20758;-55
2023/10/24 00:16:27;;;;;;;2.10;1.20;;;18.50;68.90;;;;;;5053236;28;20031;-53
2023/10/24 00:18:52;;;;;;;1.60;1.20;;;18.40;68.90;;;;;;5048080;28;20025;-51
2023/10/24 00:21:18;;;;;;;2.58;1.35;;;18.40;68.80;;;;;;5043315;28;20036;-56
2023/10/24 00:23:43;;;;;;;3.50;1.30;;;18.50;68.90;;;;;;5047347;28;20434;-57
2023/10/24 00:26:09;;;;;;;2.30;1.30;;;18.40;68.90;;;;;;5044607;28;20075;-53
2023/10/24 00:28:34;;;;;;;2.15;1.35;;;18.40;68.80;;;;;;5043834;28;20478;-56
2023/10/24 00:31:00;;;;;;;1.83;1.08;;;18.50;68.90;;;;;;5051852;28;20095;-51
2023/10/24 00:33:26;;;;;;;2.13;1.50;;;18.40;68.80;;;;;;5046048;28;20060;-54
2023/10/24 00:35:52;;;;;;;2.15;1.30;;;18.40;68.80;;;;;;5044236;28;20036;-53
2023/10/24 00:38:17;;;;;;;1.90;1.33;;;18.40;68.80;;;;;;5049059;28;20036;-57
2023/10/24 00:40:43;;;;;;;2.13;1.10;;;18.40;68.90;;;;;;5046425;28;20029;-57
2023/10/24 00:43:09;;;;;;;1.50;1.13;;;18.40;68.90;;;;;;5051649;28;20040;-54
2023/10/24 00:45:35;;;;;;;1.60;1.02;;;18.40;68.80;;;;;;5053660;28;20048;-52
2023/10/24 00:48:04;;;;;;;3.20;1.23;;;18.40;68.80;;;;;;5049693;28;20284;-55
2023/10/24 00:50:30;;;;;;;2.85;1.08;;;18.50;69.00;;;;;;5042931;28;20033;-53
2023/10/24 00:52:56;;;;;;;1.23;1.00;;;18.50;68.90;;;;;;5045709;28;20116;-55
2023/10/24 00:55:22;;;;;;;2.83;1.05;;;18.40;68.80;;;;;;5046028;28;20099;-56
2023/10/24 00:57:50;;;;;;;2.08;1.25;;;18.40;68.80;;;;;;5047522;28;20037;-55
2023/10/24 01:00:16;;;;;;;1.48;1.05;;;18.50;68.90;;;;;;5046054;28;20417;-55
2023/10/24 01:02:42;;;;;;;1.65;1.10;;;18.40;68.90;;;;;;5047433;28;20700;-55
2023/10/24 01:05:08;;;;;;;2.15;1.45;;;18.40;68.80;;;;;;5046653;28;20068;-56
2023/10/24 01:07:48;;;;;;;1.55;0.95;;;18.40;68.80;;;;;;5022390;28;20052;-53
2023/10/24 01:10:14;;;;;;;1.67;1.02;;;18.40;68.80;;;;;;5045982;28;20029;-53
2023/10/24 01:12:40;;;;;;;1.70;1.40;;;18.40;68.80;;;;;;5051521;28;20188;-56
2023/10/24 01:15:06;;;;;;;2.47;1.02;;;18.40;68.80;;;;;;5050781;28;20035;-57
2023/10/24 01:17:32;;;;;;;2.65;1.05;;;18.40;68.80;;;;;;5046236;28;20524;-54
2023/10/24 01:19:57;;;;;;;1.65;1.00;;;18.40;68.90;;;;;;5043446;28;20998;-56
2023/10/24 01:22:23;;;;;;;1.77;0.98;;;18.40;68.80;;;;;;5045131;28;20063;-50
2023/10/24 01:24:50;;;;;;;2.17;1.30;;;18.40;68.80;;;;;;5047255;28;20075;-56
2023/10/24 01:27:18;;;;;;;1.75;1.30;;;18.40;68.80;;;;;;5048879;28;20494;-56
2023/10/24 01:29:44;;;;;;;2.10;1.15;;;18.40;68.80;;;;;;5045779;28;20116;-57
2023/10/24 01:32:09;;;;;;;2.05;1.35;;;18.40;68.80;;;;;;5042922;28;20108;-56
2023/10/24 01:34:35;;;;;;;3.03;1.20;;;18.40;68.80;;;;;;5049218;28;20086;-52
2023/10/24 01:37:00;;;;;;;1.35;1.13;;;18.40;68.90;;;;;;5047130;28;20091;-54
2023/10/24 01:39:26;;;;;;;1.40;1.10;;;18.40;68.80;;;;;;5046223;28;20118;-58
2023/10/24 01:41:51;;;;;;;2.13;1.10;;;18.40;68.90;;;;;;5051373;28;20357;-51
2023/10/24 01:44:17;;;;;;;1.27;0.90;;;18.50;68.90;;;;;;5052900;28;20032;-51
2023/10/24 01:46:42;;;;;;;1.00;0.90;;;18.40;68.80;;;;;;5043576;28;20028;-56
2023/10/24 01:49:08;;;;;;;2.47;1.15;;;18.40;68.80;;;;;;5044007;28;20394;-56
2023/10/24 01:51:35;;;;;;;1.63;1.13;;;18.40;68.80;;;;;;5044744;28;20398;-54
2023/10/24 01:54:00;;;;;;;1.58;0.93;;;18.40;68.80;;;;;;5045849;28;20052;-56
2023/10/24 01:56:26;;;;;;;2.30;1.20;;;18.40;68.80;;;;;;5046177;28;20472;-56
2023/10/24 01:58:51;;;;;;;2.03;1.30;;;18.50;68.90;;;;;;5047873;28;20090;-52
2023/10/24 02:01:17;;;;;;;1.13;0.90;;;18.40;68.80;;;;;;5046288;28;20056;-53
2023/10/24 02:03:42;;;;;;;1.88;1.20;;;18.40;68.80;;;;;;5046176;28;20052;-58
2023/10/24 02:06:08;;;;;;;1.98;1.30;;;18.40;68.80;;;;;;5045860;28;20762;-53
2023/10/24 02:08:34;;;;;;;2.65;1.05;;;18.40;68.80;;;;;;5051290;28;20425;-51
2023/10/24 02:11:00;;;;;;;2.22;1.25;;;18.40;68.80;;;;;;5048657;28;20746;-53
2023/10/24 02:13:25;;;;;;;1.10;0.93;;;18.40;68.80;;;;;;5051971;28;20051;-55
2023/10/24 02:15:54;;;;;;;1.08;0.90;;;18.50;68.90;;;;;;5046298;28;20032;-54
2023/10/24 02:18:19;;;;;;;1.35;1.00;;;18.40;68.80;;;;;;5042509;28;20043;-56
2023/10/24 02:20:45;;;;;;;2.60;1.10;;;18.40;68.80;;;;;;5047824;28;20033;-56
2023/10/24 02:23:10;;;;;;;1.13;0.90;;;18.40;68.80;;;;;;5048692;28;20025;-56
2023/10/24 02:25:37;;;;;;;0.93;0.70;;;18.40;68.80;;;;;;5049444;28;20050;-53
2023/10/24 02:28:02;;;;;;;1.90;1.08;;;18.40;68.90;;;;;;5050081;28;25083;-52
2023/10/24 02:30:28;;;;;;;1.35;1.15;;;18.40;68.80;;;;;;5048595;28;20025;-54
2023/10/24 02:33:00;;;;;;;1.27;1.10;;;18.40;68.80;;;;;;5048835;28;20039;-57
2023/10/24 02:35:26;;;;;;;1.45;1.15;;;18.40;68.90;;;;;;5051570;28;20040;-57
2023/10/24 02:37:51;;;;;;;0.98;0.88;;;18.50;68.90;;;;;;5055325;28;20032;-57
2023/10/24 02:40:18;;;;;;;1.58;0.90;;;18.50;68.90;;;;;;5049703;28;20417;-56
2023/10/24 02:42:43;;;;;;;1.50;0.85;;;18.40;68.80;;;;;;5055608;28;20029;-56
2023/10/24 02:45:09;;;;;;;1.55;0.90;;;18.50;68.90;;;;;;5046785;28;20067;-54
2023/10/24 02:47:35;;;;;;;1.17;0.85;;;18.40;68.80;;;;;;5049473;28;20029;-54
2023/10/24 02:50:00;;;;;;;2.13;1.00;;;18.40;68.90;;;;;;5050949;28;20033;-54
2023/10/24 02:52:28;;;;;;;1.42;0.98;;;18.40;68.90;;;;;;5049832;28;20104;-51
2023/10/24 02:54:54;;;;;;;2.22;1.20;;;18.40;68.90;;;;;;5049502;28;20051;-54
2023/10/24 02:57:19;;;;;;;1.80;0.95;;;18.50;68.90;;;;;;5050631;28;20032;-57
2023/10/24 02:59:45;;;;;;;1.27;0.80;;;18.40;68.80;;;;;;5050415;28;20036;-52
2023/10/24 03:02:11;;;;;;;1.90;0.70;;;18.50;68.90;;;;;;5049714;28;20053;-52
2023/10/24 03:04:36;;;;;;;1.30;0.98;;;18.40;68.80;;;;;;5052008;28;20040;-54
2023/10/24 03:07:02;;;;;;;1.95;1.55;;;18.40;68.90;;;;;;5056227;28;20038;-55
2023/10/24 03:09:28;;;;;;;1.33;0.93;;;18.40;68.90;;;;;;5051884;28;20119;-54
2023/10/24 03:11:54;;;;;;;1.00;0.80;;;18.40;68.90;;;;;;5055870;28;20171;-55
2023/10/24 03:14:19;;;;;;;2.10;0.80;;;18.40;68.90;;;;;;5046784;28;20021;-53
2023/10/24 03:16:45;;;;;;;1.30;1.00;;;18.40;68.80;;;;;;5049801;28;20058;-56
2023/10/24 03:19:10;;;;;;;1.75;0.90;;;18.40;68.90;;;;;;5050173;28;20033;-58
2023/10/24 03:21:36;;;;;;;1.48;0.98;;;18.40;68.80;;;;;;5053295;28;20039;-56
2023/10/24 03:24:02;;;;;;;1.92;1.05;;;18.40;68.80;;;;;;5047816;28;20623;-52
2023/10/24 03:26:28;;;;;;;0.70;0.70;;;18.40;68.80;;;;;;5053478;28;20037;-51
2023/10/24 03:28:53;;;;;;;1.83;1.00;;;18.40;68.80;;;;;;5050787;28;20577;-54
2023/10/24 03:31:19;;;;;;;1.20;0.95;;;18.40;68.80;;;;;;5034747;28;20543;-53
2023/10/24 03:33:44;;;;;;;1.52;1.02;;;18.40;68.80;;;;;;5045852;28;20097;-57
2023/10/24 03:36:12;;;;;;;1.67;1.00;;;18.40;68.80;;;;;;5050840;28;20036;-55
2023/10/24 03:38:38;;;;;;;1.13;0.90;;;18.40;68.80;;;;;;5050790;28;20041;-55
2023/10/24 03:41:04;;;;;;;1.42;0.95;;;18.40;68.90;;;;;;5051156;28;20106;-56
2023/10/24 03:43:30;;;;;;;1.95;1.25;;;18.40;68.80;;;;;;5046484;28;20250;-54
2023/10/24 03:45:55;;;;;;;1.67;1.02;;;18.40;68.90;;;;;;5047940;28;20812;-57
2023/10/24 03:48:21;;;;;;;2.15;1.10;;;18.40;68.80;;;;;;5051741;28;20584;-56
2023/10/24 03:50:46;;;;;;;1.50;0.82;;;18.40;68.80;;;;;;5051286;28;20120;-55
2023/10/24 03:53:12;;;;;;;2.17;1.20;;;18.40;68.80;;;;;;5052148;28;20044;-56
2023/10/24 03:55:37;;;;;;;1.48;1.30;;;18.40;68.80;;;;;;5054675;28;20039;-55
2023/10/24 03:58:04;;;;;;;1.33;0.90;;;18.40;68.80;;;;;;5047372;28;20025;-56
2023/10/24 04:00:30;;;;;;;1.77;1.02;;;18.40;68.80;;;;;;5050274;28;20056;-55
2023/10/24 04:02:56;;;;;;;1.70;0.90;;;18.40;68.80;;;;;;5050398;28;20028;-55
2023/10/24 04:05:22;;;;;;;1.90;1.23;;;18.40;68.80;;;;;;5048152;28;20038;-56
2023/10/24 04:07:48;;;;;;;1.35;0.90;;;18.40;68.90;;;;;;5056976;28;20107;-55
2023/10/24 04:10:15;;;;;;;1.23;0.82;;;18.40;68.90;;;;;;5051665;28;20516;-54
2023/10/24 04:12:41;;;;;;;1.20;1.10;;;18.40;68.90;;;;;;5047587;28;20091;-55
2023/10/24 04:15:08;;;;;;;3.05;1.45;;;18.40;68.90;;;;;;5049925;28;20081;-54
2023/10/24 04:17:33;;;;;;;1.38;1.02;;;18.40;68.90;;;;;;5048173;28;20036;-54
2023/10/24 04:19:59;;;;;;;2.13;0.98;;;18.40;68.90;;;;;;5050520;28;20033;-54
2023/10/24 04:22:25;;;;;;;1.45;0.82;;;18.40;68.90;;;;;;5048616;28;20033;-55
2023/10/24 04:24:51;;;;;;;1.95;1.48;;;18.40;68.90;;;;;;5051064;28;20102;-54
2023/10/24 04:27:16;;;;;;;1.27;0.98;;;18.50;68.90;;;;;;5052371;28;20049;-54
2023/10/24 04:29:42;;;;;;;1.10;0.88;;;18.40;68.80;;;;;;5047536;28;20044;-52
2023/10/24 04:32:08;;;;;;;1.25;0.93;;;18.40;68.80;;;;;;5050678;28;20056;-51
2023/10/24 04:34:33;;;;;;;2.25;1.25;;;18.40;68.90;;;;;;5048401;28;20025;-55
2023/10/24 04:37:01;;;;;;;1.42;1.10;;;18.40;68.80;;;;;;5049068;28;20410;-56
2023/10/24 04:39:27;;;;;;;1.38;1.27;;;18.40;68.90;;;;;;5050474;28;20068;-54
2023/10/24 04:41:53;;;;;;;1.48;1.00;;;18.40;68.80;;;;;;5045172;28;20079;-55
2023/10/24 04:44:19;;;;;;;0.95;0.77;;;18.40;68.80;;;;;;5048223;28;20041;-55
2023/10/24 04:46:45;;;;;;;1.58;1.20;;;18.40;68.80;;;;;;5048326;28;20033;-54
2023/10/24 04:49:11;;;;;;;1.40;1.15;;;18.40;68.80;;;;;;5047029;28;20032;-55
2023/10/24 04:51:37;;;;;;;2.75;1.42;;;18.40;68.80;;;;;;5046947;28;20035;-55
2023/10/24 04:54:02;;;;;;;1.65;1.17;;;18.40;68.80;;;;;;5049875;28;20025;-56
2023/10/24 04:56:28;;;;;;;1.23;0.98;;;18.40;68.80;;;;;;5052565;28;20025;-52
2023/10/24 04:58:55;;;;;;;1.10;0.80;;;18.40;68.80;;;;;;5048547;28;20324;-54
2023/10/24 05:01:20;;;;;;;1.00;0.90;;;18.40;68.80;;;;;;5048234;28;20164;-54
2023/10/24 05:03:46;;;;;;;1.42;1.10;;;18.40;68.80;;;;;;5054808;28;20503;-53
2023/10/24 05:06:12;;;;;;;1.50;1.00;;;18.40;68.80;;;;;;5026237;28;20030;-55
2023/10/24 05:08:38;;;;;;;1.55;1.38;;;18.40;68.80;;;;;;5038440;28;20063;-54
2023/10/24 05:11:04;;;;;;;1.48;1.05;;;18.40;68.80;;;;;;5043607;28;20055;-53
2023/10/24 05:13:29;;;;;;;1.05;0.77;;;18.40;68.80;;;;;;5045204;28;20487;-55
2023/10/24 05:15:55;;;;;;;1.52;1.10;;;18.40;68.80;;;;;;5044912;28;20039;-56
2023/10/24 05:18:20;;;;;;;2.25;0.95;;;18.40;68.80;;;;;;5045104;28;20612;-56
2023/10/24 05:20:46;;;;;;;1.48;1.00;;;18.40;68.80;;;;;;5044378;28;20406;-55
2023/10/24 05:23:12;;;;;;;1.83;1.30;;;18.40;68.80;;;;;;5051189;28;20166;-55
2023/10/24 05:25:37;;;;;;;1.80;1.10;;;18.40;68.80;;;;;;5049162;28;20025;-53
2023/10/24 05:28:03;;;;;;;1.40;1.00;;;18.40;69.50;;;;;;5044265;28;20033;-56
2023/10/24 05:30:28;;;;;;;1.70;1.05;;;18.40;69.50;;;;;;5047684;28;20045;-55
2023/10/24 05:32:55;;;;;;;2.25;1.40;;;18.40;68.90;;;;;;5047323;28;20097;-54
2023/10/24 05:35:20;;;;;;;2.90;1.25;;;18.40;68.90;;;;;;5048820;28;20049;-54
2023/10/24 05:37:46;;;;;;;1.75;1.02;;;18.40;68.90;;;;;;5050531;28;20425;-54
2023/10/24 05:40:11;;;;;;;1.63;1.10;;;18.40;68.90;;;;;;5044718;28;20249;-54
2023/10/24 05:42:37;;;;;;;2.85;1.60;;;18.40;68.90;;;;;;5040607;28;20417;-55
2023/10/24 05:45:03;;;;;;;2.97;1.20;;;18.40;68.80;;;;;;5044236;28;20127;-56
2023/10/24 05:47:29;;;;;;;1.85;1.00;;;18.40;68.80;;;;;;5043706;28;20033;-54
2023/10/24 05:49:54;;;;;;;2.00;1.30;;;18.40;68.80;;;;;;5045322;28;20039;-56
2023/10/24 05:52:20;;;;;;;1.95;1.50;;;18.40;68.80;;;;;;5045705;28;20041;-54
2023/10/24 05:54:45;;;;;;;3.83;1.30;;;18.40;68.80;;;;;;5050990;28;20037;-54
2023/10/24 05:57:11;;;;;;;2.15;1.38;;;18.40;68.80;;;;;;5049916;28;20025;-55
2023/10/24 05:59:37;;;;;;;1.90;1.30;;;18.40;68.80;;;;;;5049133;28;20549;-56
2023/10/24 06:02:02;;;;;;;1.63;1.30;;;18.40;68.90;;;;;;5051411;28;20138;-54
2023/10/24 06:04:28;;;;;;;2.15;1.25;;;18.40;68.80;;;;;;5053391;28;20060;-54
2023/10/24 06:06:54;;;;;;;2.22;1.33;;;18.40;68.80;;;;;;5053027;28;20025;-54
2023/10/24 06:09:19;;;;;;;3.10;1.50;;;18.40;68.80;;;;;;5047209;28;20521;-60
2023/10/24 06:11:45;;;;;;;4.63;1.55;;;18.40;68.80;;;;;;5049963;28;20032;-55
2023/10/24 06:14:10;;;;;;;1.85;1.30;;;18.40;68.80;;;;;;5047630;28;20025;-53
2023/10/24 06:16:36;;;;;;;2.30;1.33;;;18.40;68.80;;;;;;5051149;28;20030;-55
2023/10/24 06:19:01;;;;;;;2.13;1.48;;;18.40;68.80;;;;;;5049971;28;20029;-54
2023/10/24 06:21:27;;;;;;;2.20;1.42;;;18.40;68.80;;;;;;5050997;28;20031;-55
2023/10/24 06:23:53;;;;;;;3.05;1.40;;;18.40;69.40;;;;;;5052798;28;20024;-60
2023/10/24 06:26:19;;;;;;;3.85;1.60;;;18.40;68.80;;;;;;5047850;28;20122;-55
2023/10/24 06:28:45;;;;;;;2.60;1.65;;;18.40;68.80;;;;;;5051170;28;20109;-54
2023/10/24 06:31:12;;;;;;;2.22;1.48;;;18.40;68.80;;;;;;5050980;28;20094;-52
2023/10/24 06:33:38;;;;;;;2.08;1.55;;;18.50;68.80;;;;;;5048318;28;20128;-55
2023/10/24 06:36:04;;;;;;;4.07;1.80;;;18.50;68.80;;;;;;5048087;28;20091;-56
2023/10/24 06:38:30;;;;;;;2.72;1.50;;;18.40;68.80;;;;;;5046376;28;20277;-56
2023/10/24 06:40:58;;;;;;;2.65;1.50;;;18.40;68.80;;;;;;5051596;28;20040;-56
2023/10/24 06:43:25;;;;;;;2.78;1.40;;;18.40;68.80;;;;;;5048716;28;20040;-53
2023/10/24 06:45:51;;;;;;;4.25;1.58;;;18.40;68.80;;;;;;5050670;28;20256;-54
2023/10/24 06:48:17;;;;;;;2.50;1.90;;;18.40;68.80;;;;;;5051720;28;20028;-55
2023/10/24 06:50:42;;;;;;;2.42;1.70;;;18.40;68.80;;;;;;5048810;28;20025;-52
2023/10/24 06:53:09;;;;;;;2.17;1.48;;;18.40;68.80;;;;;;5050422;28;20532;-55
2023/10/24 06:55:35;;;;;;;2.00;1.55;;;18.40;68.80;;;;;;5053062;28;20532;-55
2023/10/24 06:58:10;;;;;;;2.21;1.76;;;18.50;68.80;;;;;;5019839;28;10001142;-61
2023/10/24 07:00:35;;;;;;;3.88;1.55;;;18.40;68.80;;;;;;4521828;28;10001109;-53
2023/10/24 07:03:01;;;;;;;3.75;1.50;;;18.40;68.80;;;;;;5054627;28;20107;-55
2023/10/24 07:05:28;;;;;;;2.67;1.60;;;18.40;68.80;;;;;;5046259;28;20029;-55
2023/10/24 07:07:53;;;;;;;3.88;1.90;;;18.40;68.80;;;;;;5047914;28;20028;-55
2023/10/24 07:10:20;;;;;;;2.50;1.65;;;18.40;68.80;;;;;;5050459;28;20059;-54
2023/10/24 07:12:46;;;;;;;2.72;1.50;;;18.40;68.80;;;;;;5049584;28;20063;-55
2023/10/24 07:15:11;;;;;;;2.47;1.55;;;18.40;68.80;;;;;;5053108;28;20033;-57
2023/10/24 07:17:37;;;;;;;3.13;1.60;;;18.40;68.80;;;;;;5045653;28;20519;-54
2023/10/24 07:20:04;;;;;;;2.92;1.60;;;18.50;68.80;;;;;;5053711;28;20101;-54
2023/10/24 07:22:30;;;;;;;3.05;1.40;;;18.40;68.70;;;;;;5049225;28;20285;-57
2023/10/24 07:24:55;;;;;;;2.95;1.73;;;18.40;68.70;;;;;;5055579;28;20482;-54
2023/10/24 07:27:21;;;;;;;2.65;1.67;;;18.40;68.70;;;;;;5049765;28;20071;-53
2023/10/24 07:29:47;;;;;;;3.58;1.40;;;18.40;68.70;;;;;;5051039;28;20056;-55
2023/10/24 07:32:13;;;;;;;4.45;2.13;;;18.40;68.70;;;;;;5053371;28;20028;-59
2023/10/24 07:34:42;;;;;;;2.42;1.20;;;18.40;68.70;;;;;;5049170;28;20373;-57
2023/10/24 07:37:08;;;;;;;3.30;1.52;;;18.40;68.70;;;;;;5048328;28;20083;-57
2023/10/24 07:39:35;;;;;;;3.92;1.42;;;18.50;68.70;;;;;;5047494;28;20021;-55
2023/10/24 07:42:01;;;;;;;2.97;1.40;;;18.40;68.60;;;;;;5051317;28;20025;-55
2023/10/24 07:44:26;;;;;;;2.70;1.60;;;18.40;68.60;;;;;;5026816;28;20036;-55
2023/10/24 07:46:52;;;;;;;3.85;1.95;;;18.40;68.60;;;;;;5051397;28;20526;-54
2023/10/24 07:49:17;;;;;;;2.72;1.50;;;18.50;68.70;;;;;;5047782;28;20033;-55
2023/10/24 07:51:43;;;;;;;2.42;1.73;;;18.40;68.60;;;;;;5046391;28;21246;-54
2023/10/24 07:54:10;;;;;;;3.60;1.50;;;18.50;68.60;;;;;;5047933;28;20025;-56
2023/10/24 07:56:37;;;;;;;2.53;1.70;;;18.50;68.70;;;;;;5051075;28;20028;-54
2023/10/24 07:59:04;;;;;;;3.92;1.85;;;18.40;68.70;;;;;;5053072;28;20024;-55
2023/10/24 08:01:29;;;;;;;4.13;1.50;;;18.50;68.70;;;;;;5047157;28;20029;-55
2023/10/24 08:03:55;;;;;;;4.22;1.98;;;18.50;68.80;;;;;;5045792;28;20037;-54
2023/10/24 08:06:20;;;;;;;3.78;1.70;;;18.50;68.80;;;;;;5045649;28;20033;-55
2023/10/24 08:08:46;;;;;;;2.55;1.42;;;18.50;68.80;;;;;;5046313;28;20661;-55
2023/10/24 08:11:11;;;;;;;6.60;2.30;;;18.50;68.80;;;;;;5043998;28;20104;-54
2023/10/24 08:13:37;;;;;;;3.95;1.52;;;18.50;68.80;;;;;;5042612;28;20033;-54
2023/10/24 08:16:03;;;;;;;3.25;1.63;;;18.50;68.80;;;;;;5049814;28;20601;-56
2023/10/24 08:18:28;;;;;;;3.45;2.10;;;18.50;68.80;;;;;;5048490;28;20029;-56
2023/10/24 08:20:54;;;;;;;4.38;2.22;;;18.50;68.80;;;;;;5049008;28;20108;-54
2023/10/24 08:23:19;;;;;;;3.63;2.08;;;18.50;68.80;;;;;;5046461;28;20044;-52
2023/10/24 08:25:45;;;;;;;4.20;1.50;;;18.50;68.80;;;;;;5043412;28;20039;-56
2023/10/24 08:28:11;;;;;;;3.67;1.90;;;18.50;68.80;;;;;;5051740;28;20125;-55
2023/10/24 08:30:37;;;;;;;2.92;1.80;;;18.50;68.80;;;;;;5045053;28;20509;-55
2023/10/24 08:33:02;;;;;;;11.57;2.83;;;18.50;68.80;;;;;;5049212;28;20033;-57
2023/10/24 08:35:28;;;;;;;3.60;2.20;;;18.50;68.80;;;;;;5044673;28;20043;-54
2023/10/24 08:37:54;;;;;;;4.00;1.92;;;18.50;68.80;;;;;;5046216;28;20587;-55
2023/10/24 08:40:20;;;;;;;3.80;1.95;;;18.50;68.80;;;;;;5046012;28;20135;-53
2023/10/24 08:42:45;;;;;;;4.13;2.10;;;18.50;68.80;;;;;;5045803;28;20040;-55
2023/10/24 08:45:16;;;;;;;4.30;1.77;;;18.50;68.80;;;;;;5045503;28;20101;-54
2023/10/24 08:47:43;;;;;;;2.15;1.60;;;18.50;68.80;;;;;;5047632;28;20054;-56
2023/10/24 08:50:09;;;;;;;3.35;1.90;;;18.50;68.80;;;;;;5047796;28;20040;-54
2023/10/24 08:52:35;;;;;;;5.78;2.13;;;18.50;68.80;;;;;;5052435;28;20544;-52
2023/10/24 08:55:04;;;;;;;2.45;1.58;;;18.50;68.80;;;;;;5050281;28;20040;-56
2023/10/24 08:57:33;;;;;;;3.60;1.67;;;18.50;68.80;;;;;;5044507;28;20032;-56
2023/10/24 08:59:58;;;;;;;3.30;1.83;;;18.50;68.80;;;;;;5042970;28;20033;-54
2023/10/24 09:02:25;;;;;;;6.25;2.10;;;18.50;68.80;;;;;;5040342;28;21276;-55
2023/10/24 09:04:51;;;;;;;3.40;1.83;;;18.50;68.80;;;;;;5038829;22;20033;-54
2023/10/24 09:07:16;;;;;;;3.47;1.52;;;18.50;68.80;;;;;;5027965;28;21387;-58
2023/10/24 09:09:42;;;;;;;3.85;1.73;;;18.60;68.80;;;;;;5027920;28;20685;-56
2023/10/24 09:12:11;;;;;;;2.75;1.88;;;18.50;68.80;;;;;;5023549;28;20034;-57
2023/10/24 09:14:36;;;;;;;4.32;2.03;;;18.50;68.80;;;;;;5018314;28;20124;-59
2023/10/24 09:17:03;;;;;;;3.90;2.10;;;18.50;68.80;;;;;;5022275;28;20116;-56
2023/10/24 09:19:29;;;;;;;4.47;1.98;;;18.50;68.80;;;;;;5021311;28;20188;-56
2023/10/24 09:22:02;;;;;;;4.30;2.60;;;18.60;68.90;;;;;;5021246;28;20026;-54
2023/10/24 09:24:27;;;;;;;3.78;1.77;;;18.60;68.80;;;;;;5020264;28;20056;-55
2023/10/24 09:26:54;;;;;;;2.95;1.75;;;18.60;68.90;;;;;;5021029;28;20052;-53
2023/10/24 09:29:20;;;;;;;3.75;1.90;;;18.60;68.90;;;;;;5020281;28;20116;-55
2023/10/24 09:31:49;;;;;;;4.47;2.13;;;18.60;68.80;;;;;;5020450;28;20111;-52
2023/10/24 09:34:16;;;;;;;4.65;2.17;;;18.60;68.90;;;;;;5021168;28;20474;-55
2023/10/24 09:36:42;;;;;;;6.15;2.38;;;18.60;68.90;;;;;;5020197;28;20029;-51
2023/10/24 09:39:11;;;;;;;4.53;1.65;;;18.60;68.80;;;;;;5020857;28;20106;-54
2023/10/24 09:41:44;;;;;;;3.22;1.73;;;18.60;68.80;;;;;;5002218;28;20426;-57
2023/10/24 09:44:10;;;;;;;2.88;1.75;;;18.60;69.40;;;;;;5019858;28;20029;-50
2023/10/24 09:46:37;;;;;;;3.60;1.65;;;18.60;68.90;;;;;;5018762;28;20033;-54
2023/10/24 09:49:06;;;;;;;3.15;1.70;;;18.60;68.80;;;;;;5020935;28;20557;-54
2023/10/24 09:51:35;;;;;;;3.42;1.77;;;18.60;68.90;;;;;;4992308;28;20026;-53
2023/10/24 09:54:02;;;;;;;3.92;1.83;;;18.60;68.80;;;;;;5003487;28;20191;-54
2023/10/24 09:56:28;;;;;;;2.63;1.73;;;18.60;68.80;;;;;;5019968;28;20040;-57
2023/10/24 09:58:54;;;;;;;2.28;1.35;;;18.60;68.90;;;;;;5001850;28;20558;-59
2023/10/24 10:01:22;;;;;;;2.65;1.58;;;18.60;68.90;;;;;;5001980;28;20124;-53
2023/10/24 10:03:50;;;;;;;2.72;1.75;;;18.60;68.80;;;;;;5020100;28;20519;-57
2023/10/24 10:06:17;;;;;;;8.75;1.98;;;18.60;68.80;;;;;;5018992;28;20534;-56
2023/10/24 10:08:44;;;;;;;3.05;1.55;;;18.60;68.80;;;;;;5020150;28;20029;-52
2023/10/24 10:11:10;;;;;;;2.65;1.65;;;18.60;68.80;;;;;;5019793;28;20025;-55
2023/10/24 10:14:11;;;;;;;2.72;1.90;;;18.60;68.80;;;;;;5019653;28;20533;-55
2023/10/24 10:16:49;;;;;;;4.55;1.73;;;18.60;68.80;;;;;;5018963;28;20094;-53
2023/10/24 10:19:46;;;;;;;4.28;1.85;;;18.60;68.80;;;;;;5019296;28;20033;-54
2023/10/24 10:22:30;;;;;;;3.00;1.95;;;18.60;68.80;;;;;;4988228;28;20036;-56
2023/10/24 10:25:45;;;;;;;2.05;1.40;;;18.60;68.80;;;;;;5013462;28;20024;-52
2023/10/24 10:28:33;;;;;;;2.55;1.58;;;18.60;68.80;;;;;;5018745;28;20537;-55
2023/10/24 10:31:02;;;;;;;1.95;1.60;;;18.60;68.70;;;;;;4986917;28;20103;-55
2023/10/24 10:33:28;;;;;;;2.97;1.73;;;18.60;68.70;;;;;;5021201;28;20173;-52
2023/10/24 10:36:04;;;;;;;5.75;1.67;;;18.60;68.80;;;;;;5003762;28;20025;-55
2023/10/24 10:38:39;;;;;;;3.58;1.65;;;18.60;68.80;;;;;;5020199;28;20037;-54
2023/10/24 10:41:23;;;;;;;2.63;1.65;;;18.60;68.80;;;;;;5021672;28;20040;-52
2023/10/24 10:43:50;;;;;;;4.47;1.88;;;18.60;68.80;;;;;;4999719;28;20072;-54
2023/10/24 10:46:26;;;;;;;4.32;1.85;;;18.60;68.80;;;;;;5025697;28;20033;-54
2023/10/24 10:49:04;;;;;;;;;;;18.60;68.80;;;;;;5002145;28;20075;-54
2023/10/24 10:51:32;;;;;;;2.75;1.60;;;18.60;69.00;;;;;;5022441;28;19986;-55
2023/10/24 10:54:07;;;;;;;3.22;1.70;;;18.60;68.80;;;;;;5025074;28;20029;-51
2023/10/24 10:56:35;;;;;;;5.00;1.60;;;18.60;68.80;;;;;;5024875;28;20034;-54
2023/10/24 10:59:06;;;;;;;2.67;1.58;;;18.60;68.80;;;;;;5025979;28;20029;-55
2023/10/24 11:02:09;;;;;;;3.72;1.80;;;18.60;68.80;;;;;;5022152;28;20038;-54
2023/10/24 11:04:35;;;;;;;2.22;1.40;;;18.60;68.80;;;;;;5020090;28;20068;-54
2023/10/24 11:07:03;;;;;;;5.45;2.25;;;18.60;68.80;;;;;;5019528;28;20037;-56
2023/10/24 11:09:36;;;;;;;2.92;1.48;;;18.60;68.80;;;;;;5000706;28;20041;-57
2023/10/24 11:12:20;;;;;;;3.10;1.35;;;18.60;68.80;;;;;;5023003;28;20626;-53
2023/10/24 11:15:09;;;;;;;3.25;1.65;;;18.60;68.80;;;;;;5004413;28;20052;-53
2023/10/24 11:17:36;;;;;;;4.20;1.20;;;18.60;68.80;;;;;;5019457;28;20025;-52
2023/10/24 11:20:05;;;;;;;4.15;1.48;;;18.60;68.80;;;;;;5023317;28;20102;-56
2023/10/24 11:22:31;;;;;;;1.80;1.38;;;18.60;68.90;;;;;;5023516;28;20407;-55
2023/10/24 11:24:58;;;;;;;2.05;1.67;;;18.60;68.80;;;;;;5006901;28;20025;-56
2023/10/24 11:27:23;;;;;;;3.25;1.70;;;18.60;68.80;;;;;;5024832;28;20112;-56
2023/10/24 11:29:52;;;;;;;2.25;1.30;;;18.60;68.90;;;;;;5024205;28;20631;-53
2023/10/24 11:32:18;;;;;;;3.50;1.42;;;18.60;68.90;;;;;;5024585;28;20053;-56
2023/10/24 11:34:44;;;;;;;5.95;1.58;;;18.60;68.80;;;;;;5023686;28;20068;-56
2023/10/24 11:37:10;;;;;;;2.85;1.70;;;18.60;68.90;;;;;;5024033;28;20026;-56
2023/10/24 11:39:35;;;;;;;2.92;1.50;;;18.60;68.80;;;;;;5023750;28;20409;-56
2023/10/24 11:42:04;;;;;;;2.60;1.48;;;18.60;68.90;;;;;;5024748;28;20029;-54
2023/10/24 11:44:30;;;;;;;5.35;1.90;;;18.60;68.80;;;;;;5023524;28;20021;-53
2023/10/24 11:46:55;;;;;;;2.92;1.40;;;18.60;68.90;;;;;;5004927;28;20434;-54
2023/10/24 11:49:31;;;;;;;1.65;1.20;;;18.60;68.90;;;;;;5006381;28;20067;-55
2023/10/24 11:51:57;;;;;;;2.80;1.60;;;18.60;68.90;;;;;;5023050;28;20499;-53
2023/10/24 11:54:23;;;;;;;2.17;1.40;;;18.60;68.90;;;;;;5002362;28;20044;-55
2023/10/24 11:56:48;;;;;;;2.60;1.35;;;18.60;68.90;;;;;;5021764;28;20033;-53
2023/10/24 11:59:14;;;;;;;4.55;1.65;;;18.60;68.90;;;;;;5021942;28;20478;-56
2023/10/24 12:01:42;;;;;;;4.03;1.67;;;18.60;68.90;;;;;;5022929;28;20018;-53
2023/10/24 12:04:12;;;;;;;2.92;1.90;;;18.60;68.90;;;;;;5007294;28;20046;-55
2023/10/24 12:06:37;;;;;;;2.40;1.42;;;18.60;68.90;;;;;;5023109;28;20045;-55
2023/10/24 12:09:04;;;;;;;3.20;1.38;;;18.60;68.90;;;;;;5024049;28;20014;-55
2023/10/24 12:11:32;;;;;;;4.03;1.60;;;18.60;68.90;;;;;;5004246;28;20538;-55
2023/10/24 12:13:58;;;;;;;3.58;1.70;;;18.60;69.00;;;;;;5023413;28;20124;-53
2023/10/24 12:16:34;;;;;;;4.68;1.70;;;18.60;68.90;;;;;;5022990;28;20155;-56
2023/10/24 12:19:00;;;;;;;3.08;1.40;;;18.60;68.90;;;;;;5023713;28;20053;-56
2023/10/24 12:21:25;;;;;;;2.42;1.50;;;18.60;69.00;;;;;;5022221;28;20037;-54
2023/10/24 12:23:51;;;;;;;2.10;1.27;;;18.60;69.00;;;;;;5023078;28;20034;-56
2023/10/24 12:26:16;;;;;;;2.50;1.40;;;18.60;68.90;;;;;;5021032;28;20729;-54
2023/10/24 12:28:44;;;;;;;2.67;1.30;;;18.60;68.90;;;;;;5020175;28;20053;-55
2023/10/24 12:31:11;;;;;;;2.40;1.60;;;18.60;68.90;;;;;;5003578;28;20037;-55
2023/10/24 12:33:37;;;;;;;2.42;1.63;;;18.60;68.90;;;;;;5018890;28;20029;-55
2023/10/24 12:36:06;;;;;;;3.33;1.30;;;18.60;68.90;;;;;;5020668;28;20079;-56
2023/10/24 12:38:32;;;;;;;4.25;1.55;;;18.60;68.90;;;;;;5001494;28;20048;-56
2023/10/24 12:40:58;;;;;;;2.15;1.25;;;18.60;68.90;;;;;;5021718;28;20034;-56
2023/10/24 12:43:24;;;;;;;2.45;1.33;;;18.60;68.90;;;;;;5023171;28;20036;-53
2023/10/24 12:45:50;;;;;;;3.00;1.42;;;18.60;69.00;;;;;;5022599;28;20060;-56
2023/10/24 12:48:16;;;;;;;3.70;1.30;;;18.60;68.90;;;;;;5018801;28;20691;-51